createdAt,value
2024-02-26T00:02:09.518Z,2.15
2024-02-26T00:04:36.257Z,1.05
2024-02-26T00:07:03.081Z,0.90
2024-02-26T00:09:30.012Z,0.65
2024-02-26T00:11:57.025Z,1.05
2024-02-26T00:14:23.765Z,2.95
2024-02-26T00:16:51.601Z,1.75
2024-02-26T00:19:18.533Z,1.30
2024-02-26T00:21:45.308Z,1.50
2024-02-26T00:24:12.052Z,1.13
2024-02-26T00:26:38.798Z,0.98
2024-02-26T00:29:05.759Z,1.23
2024-02-26T00:31:32.520Z,0.95
2024-02-26T00:33:59.491Z,1.73
2024-02-26T00:36:27.556Z,1.63
2024-02-26T00:38:54.258Z,0.93
2024-02-26T00:41:24.381Z,1.15
2024-02-26T00:43:51.259Z,0.75
2024-02-26T00:46:18.057Z,1.98
2024-02-26T00:48:44.870Z,1.02
2024-02-26T00:51:11.788Z,0.75
2024-02-26T00:53:38.657Z,1.17
2024-02-26T00:56:05.439Z,1.65
2024-02-26T00:58:32.493Z,0.80
2024-02-26T01:00:59.264Z,0.77
2024-02-26T01:03:26.144Z,0.95
2024-02-26T01:05:55.786Z,0.95
2024-02-26T01:08:24.453Z,3.22
2024-02-26T01:10:51.710Z,1.30
2024-02-26T01:13:18.416Z,3.95
2024-02-26T01:15:45.125Z,2.05
2024-02-26T01:18:13.195Z,1.10
2024-02-26T01:20:40.038Z,1.23
2024-02-26T01:23:06.943Z,0.77
2024-02-26T01:25:33.589Z,1.10
2024-02-26T01:28:00.217Z,1.95
2024-02-26T01:30:26.897Z,0.93
2024-02-26T01:32:53.699Z,1.25
2024-02-26T01:35:21.154Z,1.52
2024-02-26T01:37:47.877Z,0.90
2024-02-26T01:40:19.142Z,1.98
2024-02-26T01:42:46.844Z,0.82
2024-02-26T01:45:21.968Z,1.10
2024-02-26T01:47:51.894Z,1.10
2024-02-26T01:52:48.320Z,1.00
2024-02-26T01:55:16.384Z,1.23
2024-02-26T01:57:47.261Z,0.93
2024-02-26T02:00:15.663Z,1.63
2024-02-26T02:02:43.162Z,1.13
2024-02-26T02:05:11.133Z,1.40
2024-02-26T02:07:37.955Z,6.72
2024-02-26T02:10:06.240Z,1.10
2024-02-26T02:12:35.250Z,1.25
2024-02-26T02:15:03.013Z,1.65
2024-02-26T02:17:29.810Z,1.00
2024-02-26T02:19:56.894Z,1.23
2024-02-26T02:22:23.638Z,1.17
2024-02-26T02:24:52.075Z,0.95
2024-02-26T02:27:19.643Z,0.68
2024-02-26T02:29:46.833Z,1.90
2024-02-26T02:32:14.316Z,0.60
2024-02-26T02:34:41.721Z,1.80
2024-02-26T02:37:08.470Z,2.38
2024-02-26T02:39:35.168Z,1.73
2024-02-26T02:42:02.874Z,0.70
2024-02-26T02:44:29.603Z,1.35
2024-02-26T02:46:56.337Z,3.45
2024-02-26T02:49:25.081Z,0.52
2024-02-26T02:51:51.910Z,0.60
2024-02-26T02:54:18.898Z,0.63
2024-02-26T02:56:45.677Z,1.08
2024-02-26T02:59:12.356Z,1.77
2024-02-26T03:01:39.113Z,0.98
2024-02-26T03:04:06.277Z,1.52
2024-02-26T03:06:33.155Z,0.95
2024-02-26T03:08:59.953Z,1.17
2024-02-26T03:11:27.543Z,0.70
2024-02-26T03:13:54.222Z,1.00
2024-02-26T03:16:20.988Z,0.60
2024-02-26T03:18:47.964Z,2.10
2024-02-26T03:21:14.778Z,0.90
2024-02-26T03:23:42.601Z,0.80
2024-02-26T03:26:09.887Z,0.88
2024-02-26T03:28:36.606Z,0.85
2024-02-26T03:31:03.576Z,0.95
2024-02-26T03:33:30.533Z,1.08
2024-02-26T03:35:57.427Z,1.63
2024-02-26T03:38:24.172Z,0.95
2024-02-26T03:40:50.988Z,1.58
2024-02-26T03:43:18.223Z,1.65
2024-02-26T03:45:45.067Z,0.80
2024-02-26T03:48:12.483Z,0.80
2024-02-26T03:50:39.200Z,0.93
2024-02-26T03:53:06.065Z,0.90
2024-02-26T03:55:32.724Z,1.83
2024-02-26T03:57:59.890Z,0.82
2024-02-26T04:00:27.435Z,1.02
2024-02-26T04:02:55.000Z,1.50
2024-02-26T04:05:22.491Z,0.88
2024-02-26T04:07:49.283Z,2.15
2024-02-26T04:10:15.985Z,2.65
2024-02-26T04:12:43.552Z,1.15
2024-02-26T04:15:11.440Z,2.45
2024-02-26T04:17:39.799Z,2.95
2024-02-26T04:20:07.343Z,0.98
2024-02-26T04:22:34.364Z,1.75
2024-02-26T04:25:01.128Z,0.70
2024-02-26T04:27:27.894Z,1.00
2024-02-26T04:29:54.671Z,2.33
2024-02-26T04:32:21.962Z,1.13
2024-02-26T04:34:49.070Z,1.90
2024-02-26T04:37:15.838Z,0.82
2024-02-26T04:39:42.523Z,2.72
2024-02-26T04:42:09.327Z,0.82
2024-02-26T04:44:36.022Z,1.30
2024-02-26T04:47:03.263Z,2.60
2024-02-26T04:49:30.276Z,1.25
2024-02-26T04:51:57.066Z,1.42
2024-02-26T04:54:23.902Z,1.30
2024-02-26T04:56:50.688Z,1.70
2024-02-26T04:59:17.455Z,1.50
2024-02-26T05:01:44.341Z,3.35
2024-02-26T05:04:11.233Z,1.40
2024-02-26T05:06:39.015Z,1.60
2024-02-26T05:09:05.756Z,4.63
2024-02-26T05:11:32.556Z,5.05
2024-02-26T05:13:59.361Z,3.10
2024-02-26T05:16:28.211Z,3.72
2024-02-26T05:18:55.135Z,2.85
2024-02-26T05:21:22.198Z,1.42
2024-02-26T05:23:49.295Z,1.67
2024-02-26T05:26:23.454Z,2.72
2024-02-26T05:28:50.246Z,1.52
2024-02-26T05:31:18.091Z,3.42
2024-02-26T05:33:45.140Z,6.07
2024-02-26T05:36:19.719Z,1.30
2024-02-26T05:38:47.678Z,2.42
2024-02-26T05:41:16.870Z,2.50
2024-02-26T05:43:43.923Z,1.38
2024-02-26T05:46:10.642Z,1.35
2024-02-26T05:48:37.539Z,2.55
2024-02-26T05:51:05.621Z,1.55
2024-02-26T05:53:32.335Z,1.63
2024-02-26T05:55:59.000Z,1.63
2024-02-26T05:58:25.718Z,1.80
2024-02-26T06:00:52.698Z,2.58
2024-02-26T06:03:19.604Z,1.30
2024-02-26T06:05:46.920Z,2.42
2024-02-26T06:08:13.727Z,1.90
2024-02-26T06:10:41.047Z,3.33
2024-02-26T06:13:07.733Z,1.83
2024-02-26T06:15:34.430Z,3.40
2024-02-26T06:18:01.249Z,2.03
2024-02-26T06:20:27.942Z,1.83
2024-02-26T06:22:54.635Z,4.30
2024-02-26T06:25:21.323Z,1.80
2024-02-26T06:27:48.045Z,2.35
2024-02-26T06:30:15.031Z,2.55
2024-02-26T06:32:42.028Z,2.10
2024-02-26T06:35:10.278Z,1.63
2024-02-26T06:37:37.490Z,2.95
2024-02-26T06:40:05.165Z,2.08
2024-02-26T06:42:32.034Z,1.73
2024-02-26T06:44:59.185Z,1.77
2024-02-26T06:47:27.042Z,2.03
2024-02-26T06:49:53.946Z,1.67
2024-02-26T06:52:20.747Z,3.58
2024-02-26T06:54:49.263Z,1.98
2024-02-26T06:57:16.005Z,1.70
2024-02-26T06:59:47.433Z,2.22
2024-02-26T07:02:15.092Z,2.47
2024-02-26T07:04:42.789Z,1.38
2024-02-26T07:07:10.409Z,1.42
2024-02-26T07:09:38.200Z,2.42
2024-02-26T07:12:05.379Z,2.33
2024-02-26T07:14:33.666Z,3.20
2024-02-26T07:17:00.404Z,2.55
2024-02-26T07:19:27.243Z,1.52
2024-02-26T07:21:53.973Z,1.38
2024-02-26T07:24:20.749Z,3.53
2024-02-26T07:26:47.970Z,2.35
2024-02-26T07:29:14.679Z,3.17
2024-02-26T07:31:41.402Z,2.00
2024-02-26T07:34:08.214Z,2.25
2024-02-26T07:36:35.001Z,1.65
2024-02-26T07:39:02.422Z,2.58
2024-02-26T07:41:29.240Z,1.58
2024-02-26T07:43:55.922Z,2.33
2024-02-26T07:46:23.112Z,1.63
2024-02-26T07:48:50.058Z,1.52
2024-02-26T07:51:18.239Z,6.90
2024-02-26T07:53:45.116Z,2.17
2024-02-26T07:56:11.808Z,3.47
2024-02-26T07:58:38.518Z,2.88
2024-02-26T08:01:05.466Z,2.08
2024-02-26T08:03:32.270Z,2.53
2024-02-26T08:05:59.117Z,1.65
2024-02-26T08:08:27.041Z,1.63
2024-02-26T08:10:53.741Z,1.67
2024-02-26T08:13:20.452Z,3.35
2024-02-26T08:15:47.125Z,2.03
2024-02-26T08:18:13.853Z,2.78
2024-02-26T08:20:40.566Z,2.83
2024-02-26T08:23:07.230Z,1.98
2024-02-26T08:25:33.918Z,2.65
2024-02-26T08:28:02.016Z,1.70
2024-02-26T08:30:28.803Z,1.70
2024-02-26T08:32:55.796Z,2.22
2024-02-26T08:35:22.690Z,1.90
2024-02-26T08:37:49.698Z,3.45
2024-02-26T08:40:16.651Z,2.55
2024-02-26T08:42:43.537Z,1.80
2024-02-26T08:45:10.792Z,2.85
2024-02-26T08:47:37.817Z,1.67
2024-02-26T08:50:06.508Z,2.17
2024-02-26T08:52:34.306Z,3.65
2024-02-26T08:55:00.989Z,3.88
2024-02-26T08:57:30.790Z,2.97
2024-02-26T08:59:57.478Z,3.85
2024-02-26T09:02:24.181Z,2.47
2024-02-26T09:04:52.593Z,2.08
2024-02-26T09:07:19.449Z,1.77
2024-02-26T09:09:46.686Z,3.00
2024-02-26T09:12:13.655Z,2.58
2024-02-26T09:14:40.441Z,2.00
2024-02-26T09:17:08.630Z,2.63
2024-02-26T09:19:35.501Z,2.95
2024-02-26T09:22:02.242Z,2.83
2024-02-26T09:24:29.097Z,2.45
2024-02-26T09:26:56.578Z,3.88
2024-02-26T09:29:23.543Z,2.58
2024-02-26T09:31:50.334Z,3.25
2024-02-26T09:34:17.567Z,3.65
2024-02-26T09:36:44.716Z,2.90
2024-02-26T09:39:13.208Z,2.28
2024-02-26T09:41:40.365Z,2.20
2024-02-26T09:44:07.477Z,1.60
2024-02-26T09:46:34.858Z,3.58
2024-02-26T09:49:02.226Z,3.13
2024-02-26T09:51:30.100Z,3.95
2024-02-26T09:54:00.595Z,2.17
2024-02-26T09:56:28.320Z,3.08
2024-02-26T09:58:57.893Z,2.05
2024-02-26T10:01:26.858Z,3.55
2024-02-26T10:03:58.259Z,1.90
2024-02-26T10:06:29.429Z,2.63
2024-02-26T10:08:59.668Z,2.88
2024-02-26T10:11:26.699Z,2.33
2024-02-26T10:13:53.364Z,3.70
2024-02-26T10:16:20.692Z,3.35
2024-02-26T10:18:57.993Z,1.70
2024-02-26T10:23:55.278Z,2.85
2024-02-26T10:26:22.993Z,2.13
2024-02-26T10:28:52.551Z,2.05
2024-02-26T10:31:22.309Z,3.67
2024-02-26T10:33:50.063Z,2.67
2024-02-26T10:36:17.435Z,2.22
2024-02-26T10:38:44.277Z,2.40
2024-02-26T10:41:15.818Z,3.45
2024-02-26T10:43:44.526Z,2.28
2024-02-26T10:46:12.536Z,3.58
2024-02-26T10:48:39.747Z,2.40
2024-02-26T10:51:06.619Z,2.20
2024-02-26T10:53:36.252Z,2.95
2024-02-26T10:56:06.057Z,2.80
2024-02-26T10:58:33.010Z,2.38
2024-02-26T11:01:00.545Z,2.10
2024-02-26T11:03:29.387Z,2.08
2024-02-26T11:05:58.504Z,2.63
2024-02-26T11:08:27.029Z,3.15
2024-02-26T11:10:58.251Z,2.33
2024-02-26T11:13:28.465Z,1.90
2024-02-26T11:15:56.326Z,4.63
2024-02-26T11:18:24.716Z,2.42
2024-02-26T11:20:53.257Z,3.05
2024-02-26T11:23:20.082Z,2.70
2024-02-26T11:25:48.504Z,2.65
2024-02-26T11:28:18.300Z,2.40
2024-02-26T11:30:49.004Z,3.33
2024-02-26T11:33:16.635Z,3.22
2024-02-26T11:35:43.791Z,2.45
2024-02-26T11:38:20.952Z,4.95
2024-02-26T11:40:48.601Z,2.50
2024-02-26T11:43:15.356Z,3.42
2024-02-26T11:45:47.583Z,3.10
2024-02-26T11:48:15.707Z,2.40
2024-02-26T11:50:45.192Z,3.00
2024-02-26T11:53:29.032Z,5.28
2024-02-26T11:56:27.367Z,4.20
2024-02-26T11:59:07.678Z,3.85
2024-02-26T12:01:38.245Z,2.95
2024-02-26T12:04:12.575Z,2.40
2024-02-26T12:07:02.315Z,2.60
2024-02-26T12:09:39.905Z,3.15
2024-02-26T12:12:09.425Z,3.05
2024-02-26T12:14:56.564Z,3.17
2024-02-26T12:17:25.035Z,4.25
2024-02-26T12:19:54.046Z,3.05
2024-02-26T12:22:21.178Z,3.57
2024-02-26T12:24:47.953Z,3.35
2024-02-26T12:27:15.737Z,3.25
2024-02-26T12:29:42.841Z,2.10
2024-02-26T12:32:09.611Z,2.95
2024-02-26T12:34:36.745Z,3.88
2024-02-26T12:37:03.789Z,3.05
2024-02-26T12:39:31.564Z,2.55
2024-02-26T12:42:00.858Z,2.88
2024-02-26T12:44:28.173Z,2.72
2024-02-26T12:47:05.175Z,3.70
2024-02-26T12:49:33.210Z,4.93
2024-02-26T12:52:03.253Z,4.20
2024-02-26T12:57:00.441Z,4.72
2024-02-26T12:59:27.501Z,6.00
2024-02-26T13:01:54.517Z,2.60
2024-02-26T13:04:21.437Z,4.07
2024-02-26T13:06:48.396Z,6.75
2024-02-26T13:09:15.746Z,3.08
2024-02-26T13:11:42.503Z,3.05
2024-02-26T13:14:19.754Z,3.50
2024-02-26T13:16:56.676Z,4.82
2024-02-26T13:19:23.926Z,4.18
2024-02-26T13:21:52.025Z,3.95
2024-02-26T13:24:21.858Z,4.07
2024-02-26T13:26:54.655Z,3.28
2024-02-26T13:29:22.878Z,6.95
2024-02-26T13:31:55.811Z,4.63
2024-02-26T13:34:30.268Z,3.05
2024-02-26T13:36:58.319Z,3.13
2024-02-26T13:39:27.038Z,2.97
2024-02-26T13:41:54.675Z,4.35
2024-02-26T13:44:22.381Z,3.55
2024-02-26T13:46:50.474Z,3.60
2024-02-26T13:49:17.578Z,2.58
2024-02-26T13:51:44.669Z,2.90
2024-02-26T13:54:11.777Z,2.30
2024-02-26T13:56:39.298Z,3.22
2024-02-26T13:59:06.377Z,2.92
2024-02-26T14:01:34.823Z,4.30
2024-02-26T14:04:03.413Z,4.40
2024-02-26T14:06:32.596Z,2.83
2024-02-26T14:09:00.108Z,5.85
2024-02-26T14:11:27.056Z,3.22
2024-02-26T14:13:53.975Z,3.65
2024-02-26T14:16:21.706Z,3.90
2024-02-26T14:18:48.936Z,4.00
2024-02-26T14:21:16.121Z,3.35
2024-02-26T14:23:45.445Z,4.43
2024-02-26T14:26:12.968Z,3.15
2024-02-26T14:28:39.764Z,2.35
2024-02-26T14:31:08.405Z,3.25
2024-02-26T14:33:35.904Z,3.17
2024-02-26T14:36:03.085Z,3.22
2024-02-26T14:38:30.006Z,3.50
2024-02-26T14:40:56.734Z,4.00
2024-02-26T14:43:24.169Z,3.42
2024-02-26T14:45:51.285Z,2.28
2024-02-26T14:48:18.036Z,4.78
2024-02-26T14:50:44.769Z,4.55
2024-02-26T14:53:11.461Z,2.95
2024-02-26T14:55:40.392Z,3.40
2024-02-26T14:58:08.612Z,3.65
2024-02-26T15:00:36.622Z,2.40
2024-02-26T15:03:04.305Z,3.92
2024-02-26T15:05:31.069Z,6.32
2024-02-26T15:07:58.100Z,5.65
2024-02-26T15:10:24.830Z,4.00
2024-02-26T15:12:55.763Z,3.92
2024-02-26T15:15:24.384Z,3.70
2024-02-26T15:17:52.619Z,3.90
2024-02-26T15:20:20.190Z,2.92
2024-02-26T15:22:47.837Z,2.97
2024-02-26T15:25:16.232Z,4.65
2024-02-26T15:27:43.348Z,4.93
2024-02-26T15:30:10.559Z,3.03
2024-02-26T15:32:37.274Z,5.35
2024-02-26T15:35:04.315Z,5.05
2024-02-26T15:37:31.322Z,4.13
2024-02-26T15:39:58.006Z,4.55
2024-02-26T15:42:26.234Z,3.92
2024-02-26T15:44:53.453Z,3.47
2024-02-26T15:47:20.143Z,5.25
2024-02-26T15:49:47.046Z,3.35
2024-02-26T15:52:13.871Z,3.38
2024-02-26T15:54:41.500Z,4.18
2024-02-26T15:57:10.674Z,3.70
2024-02-26T15:59:37.593Z,3.28
2024-02-26T16:02:04.496Z,3.47
2024-02-26T16:04:31.849Z,4.65
2024-02-26T16:07:03.266Z,4.82
2024-02-26T16:09:30.616Z,4.03
2024-02-26T16:11:59.403Z,4.80
2024-02-26T16:14:50.439Z,5.95
2024-02-26T16:17:33.003Z,5.35
2024-02-26T16:20:00.891Z,6.68
2024-02-26T16:22:28.768Z,4.97
2024-02-26T16:24:55.418Z,5.68
2024-02-26T16:27:22.255Z,3.63
2024-02-26T16:29:49.193Z,5.18
2024-02-26T16:32:16.522Z,5.07
2024-02-26T16:34:43.291Z,7.20
2024-02-26T16:37:11.914Z,8.32
2024-02-26T16:39:39.670Z,4.97
2024-02-26T16:42:07.758Z,6.43
2024-02-26T16:44:35.608Z,8.52
2024-02-26T16:47:03.392Z,4.55
2024-02-26T16:49:30.225Z,5.05
2024-02-26T16:51:57.015Z,5.10
2024-02-26T16:54:24.234Z,6.65
2024-02-26T16:56:51.496Z,6.22
2024-02-26T16:59:18.259Z,6.53
2024-02-26T17:01:48.704Z,5.88
2024-02-26T17:04:16.620Z,6.03
2024-02-26T17:06:43.309Z,6.35
2024-02-26T17:09:10.185Z,7.13
2024-02-26T17:11:38.205Z,5.90
2024-02-26T17:14:06.019Z,5.03
2024-02-26T17:16:32.940Z,4.90
2024-02-26T17:19:00.125Z,5.88
2024-02-26T17:21:27.161Z,5.78
2024-02-26T17:23:53.947Z,6.38
2024-02-26T17:26:23.380Z,5.13
2024-02-26T17:28:50.349Z,5.97
2024-02-26T17:31:18.717Z,5.45
2024-02-26T17:33:46.255Z,8.63
2024-02-26T17:36:13.585Z,7.68
2024-02-26T17:38:42.306Z,8.63
2024-02-26T17:41:09.870Z,7.15
2024-02-26T17:43:36.749Z,7.95
2024-02-26T17:46:03.787Z,7.03
2024-02-26T17:48:31.299Z,9.70
2024-02-26T17:50:58.138Z,7.40
2024-02-26T17:53:25.018Z,7.00
2024-02-26T17:55:51.911Z,10.80
2024-02-26T17:58:20.303Z,7.65
2024-02-26T18:00:47.773Z,8.68
2024-02-26T18:03:15.767Z,8.13
2024-02-26T18:05:43.139Z,8.10
2024-02-26T18:08:11.227Z,8.25
2024-02-26T18:10:38.471Z,7.45
2024-02-26T18:13:05.264Z,8.60
2024-02-26T18:15:33.464Z,7.15
2024-02-26T18:18:00.725Z,9.35
2024-02-26T18:20:27.601Z,8.00
2024-02-26T18:22:54.329Z,9.55
2024-02-26T18:25:21.103Z,9.48
2024-02-26T18:27:47.975Z,9.20
2024-02-26T18:30:14.848Z,11.13
2024-02-26T18:32:41.697Z,9.70
2024-02-26T18:35:10.766Z,10.15
2024-02-26T18:37:37.699Z,10.87
2024-02-26T18:40:08.494Z,11.68
2024-02-26T18:42:36.628Z,12.48
2024-02-26T18:45:03.993Z,9.02
2024-02-26T18:47:31.185Z,11.02
2024-02-26T18:49:58.749Z,10.90
2024-02-26T18:52:25.598Z,10.98
2024-02-26T18:54:52.674Z,9.48
2024-02-26T18:57:19.602Z,9.02
2024-02-26T18:59:47.286Z,8.98
2024-02-26T19:02:14.094Z,10.02
2024-02-26T19:04:41.191Z,8.90
2024-02-26T19:07:08.215Z,9.00
2024-02-26T19:09:35.172Z,13.38
2024-02-26T19:12:02.020Z,11.98
2024-02-26T19:14:29.584Z,11.18
2024-02-26T19:16:57.325Z,8.95
2024-02-26T19:19:24.153Z,9.48
2024-02-26T19:21:51.079Z,9.15
2024-02-26T19:24:18.244Z,9.38
2024-02-26T19:26:45.032Z,8.20
2024-02-26T19:29:11.905Z,10.75
2024-02-26T19:31:38.892Z,9.63
2024-02-26T19:34:05.805Z,8.70
2024-02-26T19:36:33.374Z,10.65
2024-02-26T19:39:00.790Z,10.05
2024-02-26T19:41:27.604Z,8.88
2024-02-26T19:43:54.646Z,9.02
2024-02-26T19:46:21.413Z,10.35
2024-02-26T19:48:48.334Z,7.90
2024-02-26T19:51:18.708Z,9.75
2024-02-26T19:53:46.778Z,12.57
2024-02-26T19:56:14.228Z,9.90
2024-02-26T19:58:40.990Z,17.42
2024-02-26T20:01:09.901Z,8.85
2024-02-26T20:03:36.994Z,9.77
2024-02-26T20:06:04.760Z,11.25
2024-02-26T20:08:31.760Z,8.88
2024-02-26T20:10:58.520Z,9.32
2024-02-26T20:13:28.710Z,11.82
2024-02-26T20:15:55.469Z,10.73
2024-02-26T20:18:22.625Z,11.50
2024-02-26T20:20:50.606Z,9.73
2024-02-26T20:23:17.688Z,8.38
2024-02-26T20:25:44.442Z,12.95
2024-02-26T20:28:11.185Z,11.35
2024-02-26T20:30:38.033Z,12.25
2024-02-26T20:33:06.323Z,9.57
2024-02-26T20:35:33.261Z,10.90
2024-02-26T20:38:00.666Z,9.77
2024-02-26T20:40:27.424Z,11.05
2024-02-26T20:42:55.573Z,9.45
2024-02-26T20:45:23.963Z,8.57
2024-02-26T20:47:53.504Z,8.20
2024-02-26T20:50:21.892Z,10.18
2024-02-26T20:52:49.675Z,10.18
2024-02-26T20:55:17.126Z,9.10
2024-02-26T20:57:44.326Z,9.00
2024-02-26T21:00:11.946Z,9.55
2024-02-26T21:02:40.411Z,9.45
2024-02-26T21:05:08.738Z,10.93
2024-02-26T21:07:36.225Z,8.82
2024-02-26T21:10:03.489Z,9.93
2024-02-26T21:12:30.469Z,11.82
2024-02-26T21:14:57.374Z,8.70
2024-02-26T21:17:24.339Z,8.27
2024-02-26T21:19:52.695Z,10.25
2024-02-26T21:22:19.599Z,10.97
2024-02-26T21:24:46.407Z,8.77
2024-02-26T21:27:13.467Z,10.38
2024-02-26T21:29:40.439Z,10.82
2024-02-26T21:32:07.933Z,8.45
2024-02-26T21:34:34.981Z,11.05
2024-02-26T21:37:03.164Z,8.85
2024-02-26T21:39:30.017Z,11.68
2024-02-26T21:41:56.915Z,9.07
2024-02-26T21:44:23.642Z,10.93
2024-02-26T21:46:50.760Z,12.50
2024-02-26T21:49:17.933Z,11.95
2024-02-26T21:51:46.436Z,10.32
2024-02-26T21:54:14.202Z,9.18
2024-02-26T21:56:41.965Z,11.27
2024-02-26T21:59:09.511Z,9.40
2024-02-26T22:01:36.464Z,9.60
2024-02-26T22:04:04.012Z,10.02
2024-02-26T22:06:31.202Z,11.13
2024-02-26T22:08:58.001Z,9.23
2024-02-26T22:11:24.833Z,12.43
2024-02-26T22:13:52.063Z,13.50
2024-02-26T22:16:18.817Z,13.25
2024-02-26T22:18:47.098Z,10.75
2024-02-26T22:21:14.825Z,11.43
2024-02-26T22:23:42.454Z,9.00
2024-02-26T22:26:10.176Z,9.27
2024-02-26T22:28:37.718Z,10.50
2024-02-26T22:31:05.347Z,8.65
2024-02-26T22:33:32.750Z,11.88
2024-02-26T22:35:59.720Z,9.75
2024-02-26T22:38:26.542Z,9.88
2024-02-26T22:40:53.308Z,10.00
2024-02-26T22:43:20.644Z,9.18
2024-02-26T22:45:47.629Z,8.73
2024-02-26T22:48:14.607Z,10.43
2024-02-26T22:50:41.525Z,7.63
2024-02-26T22:53:08.621Z,9.27
2024-02-26T22:55:35.868Z,8.57
2024-02-26T22:58:02.937Z,8.05
2024-02-26T23:00:33.449Z,7.78
2024-02-26T23:03:00.682Z,7.03
2024-02-26T23:05:28.322Z,7.20
2024-02-26T23:07:56.444Z,7.88
2024-02-26T23:10:23.834Z,9.43
2024-02-26T23:12:51.002Z,7.40
2024-02-26T23:15:19.105Z,8.27
2024-02-26T23:17:45.957Z,7.32
2024-02-26T23:20:14.539Z,8.13
2024-02-26T23:22:48.398Z,8.60
2024-02-26T23:25:16.864Z,11.55
2024-02-26T23:27:46.928Z,6.53
2024-02-26T23:30:14.771Z,6.25
2024-02-26T23:32:42.082Z,6.97
2024-02-26T23:35:09.795Z,7.57
2024-02-26T23:37:36.840Z,6.72
2024-02-26T23:40:07.590Z,5.28
2024-02-26T23:42:35.775Z,6.70
2024-02-26T23:45:02.956Z,8.15
2024-02-26T23:47:29.980Z,7.68
2024-02-26T23:49:57.628Z,6.72
2024-02-26T23:52:24.510Z,7.18
2024-02-26T23:54:51.272Z,6.65
2024-02-26T23:57:18.150Z,6.07
2024-02-26T23:59:45.163Z,6.90
